sensor_id;sensor_type;location;lat;lon;timestamp;P1;durP1;ratioP1;P2;durP2;ratioP2
10132;SDS011;5106;50.926;7.080;2023-04-03T00:00:30;2.87;;;1.50;;
10132;SDS011;5106;50.926;7.080;2023-04-03T00:02:56;2.00;;;1.60;;
10132;SDS011;5106;50.926;7.080;2023-04-03T00:05:24;1.90;;;1.37;;
10132;SDS011;5106;50.926;7.080;2023-04-03T00:07:50;2.30;;;1.70;;
10132;SDS011;5106;50.926;7.080;2023-04-03T00:10:16;3.10;;;1.57;;
10132;SDS011;5106;50.926;7.080;2023-04-03T00:12:41;3.50;;;1.70;;
10132;SDS011;5106;50.926;7.080;2023-04-03T00:15:07;2.77;;;1.70;;
10132;SDS011;5106;50.926;7.080;2023-04-03T00:17:33;2.13;;;1.40;;
10132;SDS011;5106;50.926;7.080;2023-04-03T00:19:59;2.80;;;1.50;;
10132;SDS011;5106;50.926;7.080;2023-04-03T00:22:24;3.03;;;1.90;;
10132;SDS011;5106;50.926;7.080;2023-04-03T00:24:51;4.63;;;1.90;;
10132;SDS011;5106;50.926;7.080;2023-04-03T00:27:17;2.20;;;1.70;;
10132;SDS011;5106;50.926;7.080;2023-04-03T00:29:42;1.83;;;1.50;;
10132;SDS011;5106;50.926;7.080;2023-04-03T00:32:08;2.63;;;1.80;;
10132;SDS011;5106;50.926;7.080;2023-04-03T00:34:33;4.03;;;1.83;;
10132;SDS011;5106;50.926;7.080;2023-04-03T00:36:59;2.10;;;1.60;;
10132;SDS011;5106;50.926;7.080;2023-04-03T00:39:25;2.37;;;1.70;;
10132;SDS011;5106;50.926;7.080;2023-04-03T00:41:50;2.13;;;1.60;;
10132;SDS011;5106;50.926;7.080;2023-04-03T00:47:02;1.90;;;1.40;;
10132;SDS011;5106;50.926;7.080;2023-04-03T00:49:30;2.07;;;1.60;;
10132;SDS011;5106;50.926;7.080;2023-04-03T00:51:56;2.50;;;1.70;;
10132;SDS011;5106;50.926;7.080;2023-04-03T00:54:23;3.17;;;1.70;;
10132;SDS011;5106;50.926;7.080;2023-04-03T00:56:50;5.30;;;2.00;;
10132;SDS011;5106;50.926;7.080;2023-04-03T00:59:19;2.73;;;1.60;;
10132;SDS011;5106;50.926;7.080;2023-04-03T01:01:50;4.00;;;1.43;;
10132;SDS011;5106;50.926;7.080;2023-04-03T01:04:26;3.07;;;1.80;;
10132;SDS011;5106;50.926;7.080;2023-04-03T01:06:57;1.90;;;1.40;;
10132;SDS011;5106;50.926;7.080;2023-04-03T01:09:27;3.13;;;1.63;;
10132;SDS011;5106;50.926;7.080;2023-04-03T01:11:54;2.47;;;1.40;;
10132;SDS011;5106;50.926;7.080;2023-04-03T01:14:43;3.47;;;1.60;;
10132;SDS011;5106;50.926;7.080;2023-04-03T01:23:03;2.90;;;1.60;;
10132;SDS011;5106;50.926;7.080;2023-04-03T01:25:39;2.53;;;1.70;;
10132;SDS011;5106;50.926;7.080;2023-04-03T01:28:17;1.83;;;1.27;;
10132;SDS011;5106;50.926;7.080;2023-04-03T01:30:56;2.17;;;1.50;;
10132;SDS011;5106;50.926;7.080;2023-04-03T01:33:42;2.17;;;1.40;;
10132;SDS011;5106;50.926;7.080;2023-04-03T01:36:09;1.43;;;1.30;;
10132;SDS011;5106;50.926;7.080;2023-04-03T01:38:40;3.57;;;1.50;;
10132;SDS011;5106;50.926;7.080;2023-04-03T01:41:06;2.63;;;1.60;;
10132;SDS011;5106;50.926;7.080;2023-04-03T01:43:31;2.33;;;1.50;;
10132;SDS011;5106;50.926;7.080;2023-04-03T01:45:57;1.80;;;1.40;;
10132;SDS011;5106;50.926;7.080;2023-04-03T01:48:23;2.20;;;1.50;;
10132;SDS011;5106;50.926;7.080;2023-04-03T01:50:48;2.20;;;1.50;;
10132;SDS011;5106;50.926;7.080;2023-04-03T01:53:14;2.40;;;1.50;;
10132;SDS011;5106;50.926;7.080;2023-04-03T01:55:39;1.57;;;1.20;;
10132;SDS011;5106;50.926;7.080;2023-04-03T01:58:05;3.83;;;1.73;;
10132;SDS011;5106;50.926;7.080;2023-04-03T02:00:30;2.80;;;1.30;;
10132;SDS011;5106;50.926;7.080;2023-04-03T02:02:56;2.07;;;1.33;;
10132;SDS011;5106;50.926;7.080;2023-04-03T02:05:22;1.90;;;1.40;;
10132;SDS011;5106;50.926;7.080;2023-04-03T02:07:47;4.20;;;1.70;;
10132;SDS011;5106;50.926;7.080;2023-04-03T02:10:13;1.77;;;1.50;;
10132;SDS011;5106;50.926;7.080;2023-04-03T02:12:39;2.17;;;1.70;;
10132;SDS011;5106;50.926;7.080;2023-04-03T02:15:05;2.07;;;1.40;;
10132;SDS011;5106;50.926;7.080;2023-04-03T02:17:31;3.53;;;1.90;;
10132;SDS011;5106;50.926;7.080;2023-04-03T02:19:56;2.40;;;1.30;;
10132;SDS011;5106;50.926;7.080;2023-04-03T02:22:22;1.87;;;1.43;;
10132;SDS011;5106;50.926;7.080;2023-04-03T02:24:48;2.83;;;1.60;;
10132;SDS011;5106;50.926;7.080;2023-04-03T02:27:13;2.67;;;1.50;;
10132;SDS011;5106;50.926;7.080;2023-04-03T02:29:39;2.00;;;1.57;;
10132;SDS011;5106;50.926;7.080;2023-04-03T02:32:05;2.43;;;1.43;;
10132;SDS011;5106;50.926;7.080;2023-04-03T02:34:30;3.47;;;1.70;;
10132;SDS011;5106;50.926;7.080;2023-04-03T02:36:56;1.90;;;1.50;;
10132;SDS011;5106;50.926;7.080;2023-04-03T02:39:21;2.00;;;1.40;;
10132;SDS011;5106;50.926;7.080;2023-04-03T02:41:47;1.80;;;1.60;;
10132;SDS011;5106;50.926;7.080;2023-04-03T02:44:13;2.73;;;1.70;;
10132;SDS011;5106;50.926;7.080;2023-04-03T02:46:38;2.30;;;1.53;;
10132;SDS011;5106;50.926;7.080;2023-04-03T02:49:04;3.80;;;1.70;;
10132;SDS011;5106;50.926;7.080;2023-04-03T02:51:30;3.00;;;1.60;;
10132;SDS011;5106;50.926;7.080;2023-04-03T02:53:56;2.27;;;1.60;;
10132;SDS011;5106;50.926;7.080;2023-04-03T02:56:21;2.67;;;1.50;;
10132;SDS011;5106;50.926;7.080;2023-04-03T02:58:47;2.20;;;1.67;;
10132;SDS011;5106;50.926;7.080;2023-04-03T03:01:13;2.20;;;1.80;;
10132;SDS011;5106;50.926;7.080;2023-04-03T03:03:39;3.43;;;1.60;;
10132;SDS011;5106;50.926;7.080;2023-04-03T03:06:06;2.07;;;1.63;;
10132;SDS011;5106;50.926;7.080;2023-04-03T03:08:34;3.10;;;1.80;;
10132;SDS011;5106;50.926;7.080;2023-04-03T03:11:00;2.13;;;1.80;;
10132;SDS011;5106;50.926;7.080;2023-04-03T03:13:26;2.33;;;1.80;;
10132;SDS011;5106;50.926;7.080;2023-04-03T03:15:52;3.60;;;1.90;;
10132;SDS011;5106;50.926;7.080;2023-04-03T03:18:17;2.87;;;1.83;;
10132;SDS011;5106;50.926;7.080;2023-04-03T03:20:43;2.47;;;1.90;;
10132;SDS011;5106;50.926;7.080;2023-04-03T03:23:09;2.47;;;2.10;;
10132;SDS011;5106;50.926;7.080;2023-04-03T03:25:39;4.03;;;1.80;;
10132;SDS011;5106;50.926;7.080;2023-04-03T03:28:05;2.60;;;2.07;;
10132;SDS011;5106;50.926;7.080;2023-04-03T03:30:32;1.90;;;1.70;;
10132;SDS011;5106;50.926;7.080;2023-04-03T03:32:58;2.57;;;1.93;;
10132;SDS011;5106;50.926;7.080;2023-04-03T03:35:23;2.77;;;2.10;;
10132;SDS011;5106;50.926;7.080;2023-04-03T03:37:49;2.60;;;2.10;;
10132;SDS011;5106;50.926;7.080;2023-04-03T03:40:15;2.53;;;2.10;;
10132;SDS011;5106;50.926;7.080;2023-04-03T03:42:40;3.10;;;2.10;;
10132;SDS011;5106;50.926;7.080;2023-04-03T03:45:06;3.13;;;1.90;;
10132;SDS011;5106;50.926;7.080;2023-04-03T03:47:32;3.50;;;2.10;;
10132;SDS011;5106;50.926;7.080;2023-04-03T03:49:58;2.63;;;1.90;;
10132;SDS011;5106;50.926;7.080;2023-04-03T03:52:23;2.23;;;1.90;;
10132;SDS011;5106;50.926;7.080;2023-04-03T03:54:49;2.40;;;1.67;;
10132;SDS011;5106;50.926;7.080;2023-04-03T03:57:15;4.03;;;1.93;;
10132;SDS011;5106;50.926;7.080;2023-04-03T03:59:41;2.33;;;1.97;;
10132;SDS011;5106;50.926;7.080;2023-04-03T04:02:07;2.13;;;1.70;;
10132;SDS011;5106;50.926;7.080;2023-04-03T04:04:33;3.50;;;2.03;;
10132;SDS011;5106;50.926;7.080;2023-04-03T04:06:59;2.53;;;1.90;;
10132;SDS011;5106;50.926;7.080;2023-04-03T04:09:25;3.37;;;2.13;;
10132;SDS011;5106;50.926;7.080;2023-04-03T04:11:51;2.30;;;1.70;;
10132;SDS011;5106;50.926;7.080;2023-04-03T04:14:17;2.97;;;1.70;;
10132;SDS011;5106;50.926;7.080;2023-04-03T04:16:45;3.30;;;2.10;;
10132;SDS011;5106;50.926;7.080;2023-04-03T04:19:11;2.90;;;2.07;;
10132;SDS011;5106;50.926;7.080;2023-04-03T04:21:37;2.37;;;1.47;;
10132;SDS011;5106;50.926;7.080;2023-04-03T04:24:02;3.93;;;1.60;;
10132;SDS011;5106;50.926;7.080;2023-04-03T04:26:28;2.37;;;2.00;;
10132;SDS011;5106;50.926;7.080;2023-04-03T04:28:54;2.33;;;1.77;;
10132;SDS011;5106;50.926;7.080;2023-04-03T04:31:19;2.17;;;1.50;;
10132;SDS011;5106;50.926;7.080;2023-04-03T04:33:45;2.60;;;1.60;;
10132;SDS011;5106;50.926;7.080;2023-04-03T04:36:10;2.43;;;1.70;;
10132;SDS011;5106;50.926;7.080;2023-04-03T04:38:36;1.70;;;1.30;;
10132;SDS011;5106;50.926;7.080;2023-04-03T04:41:02;1.73;;;1.57;;
10132;SDS011;5106;50.926;7.080;2023-04-03T04:43:27;2.00;;;1.47;;
10132;SDS011;5106;50.926;7.080;2023-04-03T04:46:00;1.90;;;1.30;;
10132;SDS011;5106;50.926;7.080;2023-04-03T04:48:27;2.83;;;1.63;;
10132;SDS011;5106;50.926;7.080;2023-04-03T04:50:52;2.33;;;1.30;;
10132;SDS011;5106;50.926;7.080;2023-04-03T04:53:18;3.07;;;1.80;;
10132;SDS011;5106;50.926;7.080;2023-04-03T04:55:43;4.20;;;1.67;;
10132;SDS011;5106;50.926;7.080;2023-04-03T04:58:09;2.93;;;1.60;;
10132;SDS011;5106;50.926;7.080;2023-04-03T05:00:35;2.67;;;1.70;;
10132;SDS011;5106;50.926;7.080;2023-04-03T05:03:00;3.63;;;1.93;;
10132;SDS011;5106;50.926;7.080;2023-04-03T05:05:26;2.03;;;1.40;;
10132;SDS011;5106;50.926;7.080;2023-04-03T05:07:51;2.77;;;1.80;;
10132;SDS011;5106;50.926;7.080;2023-04-03T05:10:17;4.53;;;2.50;;
10132;SDS011;5106;50.926;7.080;2023-04-03T05:12:42;3.70;;;2.33;;
10132;SDS011;5106;50.926;7.080;2023-04-03T05:15:08;2.57;;;2.07;;
10132;SDS011;5106;50.926;7.080;2023-04-03T05:17:34;3.50;;;2.27;;
10132;SDS011;5106;50.926;7.080;2023-04-03T05:19:59;4.57;;;2.07;;
10132;SDS011;5106;50.926;7.080;2023-04-03T05:22:25;4.37;;;2.10;;
10132;SDS011;5106;50.926;7.080;2023-04-03T05:24:51;5.43;;;1.90;;
10132;SDS011;5106;50.926;7.080;2023-04-03T05:27:16;4.87;;;2.00;;
10132;SDS011;5106;50.926;7.080;2023-04-03T05:29:42;6.00;;;2.20;;
10132;SDS011;5106;50.926;7.080;2023-04-03T05:32:09;5.70;;;1.97;;
10132;SDS011;5106;50.926;7.080;2023-04-03T05:34:35;3.43;;;2.10;;
10132;SDS011;5106;50.926;7.080;2023-04-03T05:37:01;5.13;;;2.00;;
10132;SDS011;5106;50.926;7.080;2023-04-03T05:39:28;3.20;;;2.00;;
10132;SDS011;5106;50.926;7.080;2023-04-03T05:41:53;4.33;;;1.87;;
10132;SDS011;5106;50.926;7.080;2023-04-03T05:44:19;6.60;;;1.73;;
10132;SDS011;5106;50.926;7.080;2023-04-03T05:46:45;2.70;;;1.60;;
10132;SDS011;5106;50.926;7.080;2023-04-03T05:49:10;2.70;;;1.60;;
10132;SDS011;5106;50.926;7.080;2023-04-03T05:51:36;2.73;;;1.50;;
10132;SDS011;5106;50.926;7.080;2023-04-03T05:54:10;5.03;;;2.00;;
10132;SDS011;5106;50.926;7.080;2023-04-03T05:56:40;2.63;;;1.40;;
10132;SDS011;5106;50.926;7.080;2023-04-03T05:59:05;3.77;;;1.43;;
10132;SDS011;5106;50.926;7.080;2023-04-03T06:01:32;4.00;;;1.43;;
10132;SDS011;5106;50.926;7.080;2023-04-03T06:03:59;3.87;;;1.30;;
10132;SDS011;5106;50.926;7.080;2023-04-03T06:06:24;3.60;;;1.50;;
10132;SDS011;5106;50.926;7.080;2023-04-03T06:08:50;3.73;;;1.50;;
10132;SDS011;5106;50.926;7.080;2023-04-03T06:11:16;3.37;;;1.43;;
10132;SDS011;5106;50.926;7.080;2023-04-03T06:13:42;2.63;;;1.67;;
10132;SDS011;5106;50.926;7.080;2023-04-03T06:16:09;3.70;;;1.63;;
10132;SDS011;5106;50.926;7.080;2023-04-03T06:18:38;2.93;;;1.33;;
10132;SDS011;5106;50.926;7.080;2023-04-03T06:21:04;4.50;;;1.53;;
10132;SDS011;5106;50.926;7.080;2023-04-03T06:23:30;3.30;;;1.53;;
10132;SDS011;5106;50.926;7.080;2023-04-03T06:25:55;3.23;;;1.47;;
10132;SDS011;5106;50.926;7.080;2023-04-03T06:28:21;7.53;;;1.60;;
10132;SDS011;5106;50.926;7.080;2023-04-03T06:30:46;4.90;;;1.00;;
10132;SDS011;5106;50.926;7.080;2023-04-03T06:33:12;2.97;;;1.40;;
10132;SDS011;5106;50.926;7.080;2023-04-03T06:35:37;3.33;;;1.23;;
10132;SDS011;5106;50.926;7.080;2023-04-03T06:38:03;2.53;;;1.40;;
10132;SDS011;5106;50.926;7.080;2023-04-03T06:40:34;2.03;;;1.17;;
10132;SDS011;5106;50.926;7.080;2023-04-03T06:43:00;2.93;;;1.53;;
10132;SDS011;5106;50.926;7.080;2023-04-03T06:45:26;6.13;;;1.50;;
10132;SDS011;5106;50.926;7.080;2023-04-03T06:47:52;4.37;;;1.40;;
10132;SDS011;5106;50.926;7.080;2023-04-03T06:50:18;2.87;;;1.30;;
10132;SDS011;5106;50.926;7.080;2023-04-03T06:52:44;4.40;;;1.40;;
10132;SDS011;5106;50.926;7.080;2023-04-03T06:55:09;2.23;;;1.30;;
10132;SDS011;5106;50.926;7.080;2023-04-03T06:57:35;2.00;;;1.23;;
10132;SDS011;5106;50.926;7.080;2023-04-03T07:00:02;2.83;;;1.10;;
10132;SDS011;5106;50.926;7.080;2023-04-03T07:02:29;3.93;;;1.30;;
10132;SDS011;5106;50.926;7.080;2023-04-03T07:04:55;2.07;;;1.17;;
10132;SDS011;5106;50.926;7.080;2023-04-03T07:07:20;4.03;;;1.37;;
10132;SDS011;5106;50.926;7.080;2023-04-03T07:09:46;5.10;;;1.30;;
10132;SDS011;5106;50.926;7.080;2023-04-03T07:12:13;3.17;;;1.43;;
10132;SDS011;5106;50.926;7.080;2023-04-03T07:14:39;3.00;;;1.20;;
10132;SDS011;5106;50.926;7.080;2023-04-03T07:17:04;3.43;;;1.50;;
10132;SDS011;5106;50.926;7.080;2023-04-03T07:19:30;4.10;;;1.30;;
10132;SDS011;5106;50.926;7.080;2023-04-03T07:21:56;2.00;;;1.00;;
10132;SDS011;5106;50.926;7.080;2023-04-03T07:24:21;2.83;;;1.20;;
10132;SDS011;5106;50.926;7.080;2023-04-03T07:26:51;2.83;;;1.40;;
10132;SDS011;5106;50.926;7.080;2023-04-03T07:29:17;4.13;;;1.60;;
10132;SDS011;5106;50.926;7.080;2023-04-03T07:31:43;4.00;;;1.40;;
10132;SDS011;5106;50.926;7.080;2023-04-03T07:34:10;2.83;;;1.40;;
10132;SDS011;5106;50.926;7.080;2023-04-03T07:36:36;1.80;;;1.30;;
10132;SDS011;5106;50.926;7.080;2023-04-03T07:39:02;2.23;;;1.17;;
10132;SDS011;5106;50.926;7.080;2023-04-03T07:41:28;2.90;;;1.40;;
10132;SDS011;5106;50.926;7.080;2023-04-03T07:43:55;2.73;;;1.47;;
10132;SDS011;5106;50.926;7.080;2023-04-03T07:46:21;3.07;;;1.60;;
10132;SDS011;5106;50.926;7.080;2023-04-03T07:48:47;3.53;;;1.50;;
10132;SDS011;5106;50.926;7.080;2023-04-03T07:51:13;2.53;;;1.40;;
10132;SDS011;5106;50.926;7.080;2023-04-03T07:53:38;2.50;;;1.30;;
10132;SDS011;5106;50.926;7.080;2023-04-03T07:56:04;2.93;;;1.40;;
10132;SDS011;5106;50.926;7.080;2023-04-03T07:58:30;3.07;;;1.23;;
10132;SDS011;5106;50.926;7.080;2023-04-03T08:00:56;3.53;;;1.10;;
10132;SDS011;5106;50.926;7.080;2023-04-03T08:03:22;2.27;;;1.20;;
10132;SDS011;5106;50.926;7.080;2023-04-03T08:05:48;2.67;;;1.37;;
10132;SDS011;5106;50.926;7.080;2023-04-03T08:08:15;4.83;;;1.50;;
10132;SDS011;5106;50.926;7.080;2023-04-03T08:10:52;3.03;;;1.20;;
10132;SDS011;5106;50.926;7.080;2023-04-03T08:13:19;4.70;;;1.50;;
10132;SDS011;5106;50.926;7.080;2023-04-03T08:15:45;3.93;;;1.40;;
10132;SDS011;5106;50.926;7.080;2023-04-03T08:18:11;2.20;;;1.40;;
10132;SDS011;5106;50.926;7.080;2023-04-03T08:20:37;4.40;;;1.30;;
10132;SDS011;5106;50.926;7.080;2023-04-03T08:23:05;3.50;;;1.27;;
10132;SDS011;5106;50.926;7.080;2023-04-03T08:25:32;2.43;;;1.40;;
10132;SDS011;5106;50.926;7.080;2023-04-03T08:27:58;3.27;;;1.30;;
10132;SDS011;5106;50.926;7.080;2023-04-03T08:30:24;2.40;;;1.17;;
10132;SDS011;5106;50.926;7.080;2023-04-03T08:32:50;2.53;;;1.30;;
10132;SDS011;5106;50.926;7.080;2023-04-03T08:35:18;3.27;;;1.33;;
10132;SDS011;5106;50.926;7.080;2023-04-03T08:37:45;2.20;;;1.00;;
10132;SDS011;5106;50.926;7.080;2023-04-03T08:40:13;2.43;;;1.10;;
10132;SDS011;5106;50.926;7.080;2023-04-03T08:42:49;2.33;;;1.10;;
10132;SDS011;5106;50.926;7.080;2023-04-03T08:50:46;3.20;;;1.20;;
10132;SDS011;5106;50.926;7.080;2023-04-03T08:53:14;1.53;;;1.07;;
10132;SDS011;5106;50.926;7.080;2023-04-03T08:55:45;3.13;;;1.30;;
10132;SDS011;5106;50.926;7.080;2023-04-03T08:58:12;2.90;;;1.10;;
10132;SDS011;5106;50.926;7.080;2023-04-03T09:03:20;5.07;;;1.33;;
10132;SDS011;5106;50.926;7.080;2023-04-03T09:05:54;3.20;;;1.10;;
10132;SDS011;5106;50.926;7.080;2023-04-03T09:08:24;5.57;;;1.10;;
10132;SDS011;5106;50.926;7.080;2023-04-03T09:11:16;2.27;;;1.13;;
10132;SDS011;5106;50.926;7.080;2023-04-03T09:21:58;2.70;;;1.10;;
10132;SDS011;5106;50.926;7.080;2023-04-03T09:24:27;4.07;;;1.37;;
10132;SDS011;5106;50.926;7.080;2023-04-03T09:26:58;2.37;;;1.07;;
10132;SDS011;5106;50.926;7.080;2023-04-03T09:29:37;2.93;;;1.00;;
10132;SDS011;5106;50.926;7.080;2023-04-03T09:34:54;2.83;;;1.20;;
10132;SDS011;5106;50.926;7.080;2023-04-03T09:37:42;2.33;;;0.93;;
10132;SDS011;5106;50.926;7.080;2023-04-03T09:42:50;3.13;;;1.10;;
10132;SDS011;5106;50.926;7.080;2023-04-03T09:45:34;2.43;;;0.93;;
10132;SDS011;5106;50.926;7.080;2023-04-03T09:51:00;2.60;;;1.00;;
10132;SDS011;5106;50.926;7.080;2023-04-03T09:55:55;4.97;;;1.40;;
10132;SDS011;5106;50.926;7.080;2023-04-03T10:01:03;3.90;;;1.37;;
10132;SDS011;5106;50.926;7.080;2023-04-03T10:03:33;1.90;;;1.00;;
10132;SDS011;5106;50.926;7.080;2023-04-03T10:06:02;3.83;;;1.30;;
10132;SDS011;5106;50.926;7.080;2023-04-03T10:08:32;2.50;;;1.00;;
10132;SDS011;5106;50.926;7.080;2023-04-03T10:11:07;2.17;;;1.00;;
10132;SDS011;5106;50.926;7.080;2023-04-03T10:13:51;2.17;;;1.00;;
10132;SDS011;5106;50.926;7.080;2023-04-03T10:16:23;1.40;;;0.90;;
10132;SDS011;5106;50.926;7.080;2023-04-03T10:19:18;2.13;;;0.97;;
10132;SDS011;5106;50.926;7.080;2023-04-03T10:28:00;3.42;;;0.98;;
10132;SDS011;5106;50.926;7.080;2023-04-03T10:30:34;1.73;;;0.90;;
10132;SDS011;5106;50.926;7.080;2023-04-03T10:41:29;2.27;;;0.70;;
10132;SDS011;5106;50.926;7.080;2023-04-03T10:44:15;1.73;;;0.80;;
10132;SDS011;5106;50.926;7.080;2023-04-03T10:47:28;6.72;;;0.93;;
10132;SDS011;5106;50.926;7.080;2023-04-03T10:50:04;1.67;;;0.90;;
10132;SDS011;5106;50.926;7.080;2023-04-03T10:52:46;2.20;;;1.00;;
10132;SDS011;5106;50.926;7.080;2023-04-03T10:55:26;1.15;;;0.80;;
10132;SDS011;5106;50.926;7.080;2023-04-03T10:58:02;2.45;;;0.82;;
10132;SDS011;5106;50.926;7.080;2023-04-03T11:00:38;2.53;;;0.93;;
10132;SDS011;5106;50.926;7.080;2023-04-03T11:03:15;1.77;;;1.00;;
10132;SDS011;5106;50.926;7.080;2023-04-03T11:06:07;2.05;;;0.90;;
10132;SDS011;5106;50.926;7.080;2023-04-03T11:08:52;2.80;;;1.30;;
10132;SDS011;5106;50.926;7.080;2023-04-03T11:11:24;1.40;;;0.90;;
10132;SDS011;5106;50.926;7.080;2023-04-03T11:13:55;1.83;;;1.00;;
10132;SDS011;5106;50.926;7.080;2023-04-03T11:16:47;1.23;;;0.70;;
10132;SDS011;5106;50.926;7.080;2023-04-03T11:19:19;1.13;;;0.80;;
10132;SDS011;5106;50.926;7.080;2023-04-03T11:22:10;1.10;;;0.60;;
10132;SDS011;5106;50.926;7.080;2023-04-03T11:24:51;2.13;;;1.05;;
10132;SDS011;5106;50.926;7.080;2023-04-03T11:27:43;1.40;;;0.98;;
10132;SDS011;5106;50.926;7.080;2023-04-03T11:30:20;1.13;;;0.80;;
10132;SDS011;5106;50.926;7.080;2023-04-03T11:36:28;5.00;;;1.35;;
10132;SDS011;5106;50.926;7.080;2023-04-03T11:38:59;2.08;;;1.00;;
10132;SDS011;5106;50.926;7.080;2023-04-03T11:41:32;1.90;;;1.02;;
10132;SDS011;5106;50.926;7.080;2023-04-03T11:43:59;1.80;;;1.00;;
10132;SDS011;5106;50.926;7.080;2023-04-03T11:46:55;1.85;;;1.02;;
10132;SDS011;5106;50.926;7.080;2023-04-03T12:13:34;1.48;;;0.95;;
10132;SDS011;5106;50.926;7.080;2023-04-03T12:26:50;1.83;;;0.90;;
10132;SDS011;5106;50.926;7.080;2023-04-03T12:29:24;2.88;;;0.90;;
10132;SDS011;5106;50.926;7.080;2023-04-03T12:40:05;1.33;;;0.90;;
10132;SDS011;5106;50.926;7.080;2023-04-03T12:42:35;2.00;;;1.15;;
10132;SDS011;5106;50.926;7.080;2023-04-03T12:45:20;0.90;;;0.70;;
10132;SDS011;5106;50.926;7.080;2023-04-03T12:47:53;1.88;;;0.80;;
10132;SDS011;5106;50.926;7.080;2023-04-03T12:53:03;2.22;;;0.80;;
10132;SDS011;5106;50.926;7.080;2023-04-03T12:55:29;1.67;;;0.70;;
10132;SDS011;5106;50.926;7.080;2023-04-03T12:57:55;0.70;;;0.60;;
10132;SDS011;5106;50.926;7.080;2023-04-03T13:00:34;1.17;;;0.90;;
10132;SDS011;5106;50.926;7.080;2023-04-03T13:03:03;1.27;;;0.90;;
10132;SDS011;5106;50.926;7.080;2023-04-03T13:05:31;1.23;;;0.80;;
10132;SDS011;5106;50.926;7.080;2023-04-03T13:08:02;2.50;;;1.00;;
10132;SDS011;5106;50.926;7.080;2023-04-03T13:10:30;1.75;;;0.95;;
10132;SDS011;5106;50.926;7.080;2023-04-03T13:13:07;1.58;;;1.00;;
10132;SDS011;5106;50.926;7.080;2023-04-03T13:15:41;1.50;;;0.90;;
10132;SDS011;5106;50.926;7.080;2023-04-03T13:18:24;1.35;;;0.80;;
10132;SDS011;5106;50.926;7.080;2023-04-03T13:20:53;1.55;;;0.93;;
10132;SDS011;5106;50.926;7.080;2023-04-03T13:23:28;1.40;;;0.80;;
10132;SDS011;5106;50.926;7.080;2023-04-03T13:25:56;1.38;;;0.85;;
10132;SDS011;5106;50.926;7.080;2023-04-03T13:28:25;1.25;;;1.00;;
10132;SDS011;5106;50.926;7.080;2023-04-03T13:36:31;3.08;;;1.02;;
10132;SDS011;5106;50.926;7.080;2023-04-03T13:39:17;2.30;;;1.20;;
10132;SDS011;5106;50.926;7.080;2023-04-03T13:42:16;2.97;;;1.10;;
10132;SDS011;5106;50.926;7.080;2023-04-03T13:44:47;2.05;;;1.20;;
10132;SDS011;5106;50.926;7.080;2023-04-03T13:47:16;2.25;;;0.98;;
10132;SDS011;5106;50.926;7.080;2023-04-03T13:52:40;1.13;;;0.90;;
10132;SDS011;5106;50.926;7.080;2023-04-03T13:55:34;1.20;;;1.00;;
10132;SDS011;5106;50.926;7.080;2023-04-03T13:58:03;2.05;;;1.15;;
10132;SDS011;5106;50.926;7.080;2023-04-03T14:00:51;1.83;;;0.98;;
10132;SDS011;5106;50.926;7.080;2023-04-03T14:03:46;1.92;;;1.00;;
10132;SDS011;5106;50.926;7.080;2023-04-03T14:06:21;1.67;;;1.02;;
10132;SDS011;5106;50.926;7.080;2023-04-03T14:08:48;1.27;;;0.80;;
10132;SDS011;5106;50.926;7.080;2023-04-03T14:13:47;1.77;;;1.10;;
10132;SDS011;5106;50.926;7.080;2023-04-03T14:16:21;1.48;;;0.95;;
10132;SDS011;5106;50.926;7.080;2023-04-03T14:18:50;1.10;;;0.90;;
10132;SDS011;5106;50.926;7.080;2023-04-03T14:21:17;1.48;;;1.02;;
10132;SDS011;5106;50.926;7.080;2023-04-03T14:23:44;1.60;;;0.82;;
10132;SDS011;5106;50.926;7.080;2023-04-03T14:26:11;1.58;;;0.90;;
10132;SDS011;5106;50.926;7.080;2023-04-03T14:28:41;2.20;;;1.00;;
10132;SDS011;5106;50.926;7.080;2023-04-03T14:31:07;1.48;;;1.08;;
10132;SDS011;5106;50.926;7.080;2023-04-03T14:33:32;2.78;;;1.30;;
10132;SDS011;5106;50.926;7.080;2023-04-03T14:36:01;2.92;;;1.08;;
10132;SDS011;5106;50.926;7.080;2023-04-03T14:38:35;2.05;;;1.38;;
10132;SDS011;5106;50.926;7.080;2023-04-03T14:41:00;2.75;;;1.08;;
10132;SDS011;5106;50.926;7.080;2023-04-03T14:43:26;2.00;;;1.02;;
10132;SDS011;5106;50.926;7.080;2023-04-03T14:45:52;2.38;;;1.00;;
10132;SDS011;5106;50.926;7.080;2023-04-03T14:48:19;2.65;;;1.17;;
10132;SDS011;5106;50.926;7.080;2023-04-03T14:50:47;2.55;;;1.15;;
10132;SDS011;5106;50.926;7.080;2023-04-03T14:53:14;1.60;;;1.20;;
10132;SDS011;5106;50.926;7.080;2023-04-03T14:55:46;2.67;;;1.33;;
10132;SDS011;5106;50.926;7.080;2023-04-03T14:58:14;2.00;;;1.08;;
10132;SDS011;5106;50.926;7.080;2023-04-03T15:00:42;3.65;;;1.10;;
10132;SDS011;5106;50.926;7.080;2023-04-03T15:03:11;3.10;;;1.17;;
10132;SDS011;5106;50.926;7.080;2023-04-03T15:05:48;2.00;;;1.15;;
10132;SDS011;5106;50.926;7.080;2023-04-03T15:08:18;1.13;;;0.90;;
10132;SDS011;5106;50.926;7.080;2023-04-03T15:10:47;2.38;;;1.10;;
10132;SDS011;5106;50.926;7.080;2023-04-03T15:13:14;2.17;;;0.98;;
10132;SDS011;5106;50.926;7.080;2023-04-03T15:15:40;1.95;;;1.10;;
10132;SDS011;5106;50.926;7.080;2023-04-03T15:18:06;2.33;;;1.08;;
10132;SDS011;5106;50.926;7.080;2023-04-03T15:20:32;2.17;;;1.10;;
10132;SDS011;5106;50.926;7.080;2023-04-03T15:22:58;2.03;;;1.30;;
10132;SDS011;5106;50.926;7.080;2023-04-03T15:25:29;1.50;;;1.00;;
10132;SDS011;5106;50.926;7.080;2023-04-03T15:27:56;1.85;;;1.10;;
10132;SDS011;5106;50.926;7.080;2023-04-03T15:30:22;1.20;;;1.00;;
10132;SDS011;5106;50.926;7.080;2023-04-03T15:32:48;1.73;;;1.10;;
10132;SDS011;5106;50.926;7.080;2023-04-03T15:35:14;3.22;;;1.20;;
10132;SDS011;5106;50.926;7.080;2023-04-03T15:37:40;2.13;;;1.10;;
10132;SDS011;5106;50.926;7.080;2023-04-03T15:40:06;3.10;;;1.10;;
10132;SDS011;5106;50.926;7.080;2023-04-03T15:42:33;1.77;;;1.00;;
10132;SDS011;5106;50.926;7.080;2023-04-03T15:44:59;2.58;;;1.17;;
10132;SDS011;5106;50.926;7.080;2023-04-03T15:47:25;2.15;;;1.08;;
10132;SDS011;5106;50.926;7.080;2023-04-03T15:49:52;2.08;;;1.02;;
10132;SDS011;5106;50.926;7.080;2023-04-03T15:52:19;2.08;;;1.13;;
10132;SDS011;5106;50.926;7.080;2023-04-03T15:54:45;2.88;;;1.20;;
10132;SDS011;5106;50.926;7.080;2023-04-03T15:57:10;2.53;;;1.00;;
10132;SDS011;5106;50.926;7.080;2023-04-03T15:59:36;1.48;;;1.10;;
10132;SDS011;5106;50.926;7.080;2023-04-03T16:02:01;2.63;;;1.20;;
10132;SDS011;5106;50.926;7.080;2023-04-03T16:04:32;2.65;;;1.23;;
10132;SDS011;5106;50.926;7.080;2023-04-03T16:07:00;2.25;;;1.33;;
10132;SDS011;5106;50.926;7.080;2023-04-03T16:09:27;2.15;;;1.33;;
10132;SDS011;5106;50.926;7.080;2023-04-03T16:11:53;3.28;;;1.20;;
10132;SDS011;5106;50.926;7.080;2023-04-03T16:14:19;2.13;;;1.23;;
10132;SDS011;5106;50.926;7.080;2023-04-03T16:16:45;2.08;;;1.30;;
10132;SDS011;5106;50.926;7.080;2023-04-03T16:19:10;3.75;;;1.50;;
10132;SDS011;5106;50.926;7.080;2023-04-03T16:21:36;2.20;;;1.35;;
10132;SDS011;5106;50.926;7.080;2023-04-03T16:24:02;2.85;;;1.40;;
10132;SDS011;5106;50.926;7.080;2023-04-03T16:26:28;3.42;;;1.40;;
10132;SDS011;5106;50.926;7.080;2023-04-03T16:28:54;1.75;;;1.10;;
10132;SDS011;5106;50.926;7.080;2023-04-03T16:31:19;1.65;;;1.15;;
10132;SDS011;5106;50.926;7.080;2023-04-03T16:33:46;2.03;;;1.00;;
10132;SDS011;5106;50.926;7.080;2023-04-03T16:36:12;2.30;;;1.30;;
10132;SDS011;5106;50.926;7.080;2023-04-03T16:38:37;2.25;;;1.10;;
10132;SDS011;5106;50.926;7.080;2023-04-03T16:41:03;2.08;;;1.25;;
10132;SDS011;5106;50.926;7.080;2023-04-03T16:43:30;2.40;;;1.30;;
10132;SDS011;5106;50.926;7.080;2023-04-03T16:45:56;2.28;;;0.93;;
10132;SDS011;5106;50.926;7.080;2023-04-03T16:48:22;2.10;;;1.13;;
10132;SDS011;5106;50.926;7.080;2023-04-03T16:50:48;2.08;;;0.95;;
10132;SDS011;5106;50.926;7.080;2023-04-03T16:53:18;1.80;;;1.20;;
10132;SDS011;5106;50.926;7.080;2023-04-03T16:55:44;2.42;;;1.08;;
10132;SDS011;5106;50.926;7.080;2023-04-03T16:58:10;3.60;;;1.35;;
10132;SDS011;5106;50.926;7.080;2023-04-03T17:00:35;1.73;;;1.20;;
10132;SDS011;5106;50.926;7.080;2023-04-03T17:03:01;2.60;;;1.10;;